Time;durP1;ratioP1;P1;durP2;ratioP2;P2;SDS_P1;SDS_P2;PMS_P1;PMS_P2;Temp;Humidity;BMP_temperature;BMP_pressure;BME280_temperature;BME280_humidity;BME280_pressure;Samples;Min_cycle;Max_cycle;Signal;HPM_P1;HPM_P2
2021/07/15 00:00:33;;;;;;;0.47;0.30;;;14.60;99.90;;;;;;4996516;28;20487;-86
2021/07/15 00:03:03;;;;;;;0.40;0.40;;;14.60;99.90;;;;;;4996558;28;20468;-80
2021/07/15 00:05:31;;;;;;;0.50;0.50;;;14.60;99.90;;;;;;4996425;28;20436;-80
2021/07/15 00:07:57;;;;;;;0.60;0.40;;;14.60;99.90;;;;;;4995987;28;20919;-80
2021/07/15 00:10:28;;;;;;;1.67;0.50;;;14.60;99.90;;;;;;4996383;28;20452;-80
2021/07/15 00:12:55;;;;;;;0.30;0.30;;;14.70;99.90;;;;;;4996365;28;20441;-87
2021/07/15 00:15:24;;;;;;;0.40;0.40;;;14.70;99.90;;;;;;4996348;28;20439;-88
2021/07/15 00:17:52;;;;;;;0.30;0.30;;;14.70;99.90;;;;;;4996320;28;20440;-87
2021/07/15 00:20:20;;;;;;;0.43;0.40;;;14.70;99.90;;;;;;4996007;28;20460;-78
2021/07/15 00:22:47;;;;;;;0.50;0.33;;;14.70;99.90;;;;;;4996013;28;20491;-81
2021/07/15 00:25:17;;;;;;;0.40;0.30;;;14.70;99.90;;;;;;4996061;28;20452;-82
2021/07/15 00:27:45;;;;;;;0.30;0.30;;;14.60;99.90;;;;;;4995754;28;20444;-82
2021/07/15 00:30:13;;;;;;;0.40;0.40;;;14.70;99.90;;;;;;4995872;28;20819;-82
2021/07/15 00:32:39;;;;;;;0.53;0.40;;;14.60;99.90;;;;;;4995907;28;20453;-82
2021/07/15 00:35:08;;;;;;;1.70;0.40;;;14.60;99.90;;;;;;4995834;28;20467;-81
2021/07/15 00:37:36;;;;;;;1.73;0.93;;;14.60;99.90;;;;;;4995847;28;20451;-81
2021/07/15 00:40:04;;;;;;;0.97;0.33;;;14.60;99.90;;;;;;4995422;28;20848;-81
2021/07/15 00:42:31;;;;;;;1.00;0.30;;;14.50;99.90;;;;;;4995727;28;20476;-86
2021/07/15 00:44:58;;;;;;;0.93;0.40;;;14.50;99.90;;;;;;4996014;28;20844;-86
2021/07/15 00:47:25;;;;;;;0.40;0.40;;;14.50;99.90;;;;;;4995398;28;20472;-86
2021/07/15 00:49:52;;;;;;;0.53;0.30;;;14.50;99.90;;;;;;4995290;28;20465;-86
2021/07/15 00:52:18;;;;;;;2.20;0.40;;;14.40;99.90;;;;;;4995780;28;20444;-81
2021/07/15 00:54:47;;;;;;;0.30;0.30;;;14.40;99.90;;;;;;4995201;28;20967;-80
2021/07/15 00:57:14;;;;;;;1.17;0.40;;;14.40;99.90;;;;;;4995216;28;20951;-81
2021/07/15 00:59:41;;;;;;;0.33;0.30;;;14.30;99.90;;;;;;4995085;28;20464;-80
2021/07/15 01:02:08;;;;;;;0.50;0.37;;;14.20;99.90;;;;;;4995486;28;20490;-85
2021/07/15 01:04:36;;;;;;;0.40;0.30;;;14.20;99.90;;;;;;4995181;28;20807;-85
2021/07/15 01:07:03;;;;;;;0.70;0.30;;;14.20;99.90;;;;;;4995690;28;20449;-86
2021/07/15 01:09:32;;;;;;;0.73;0.30;;;14.20;99.90;;;;;;4995242;28;20478;-85
2021/07/15 01:12:13;;;;;;;1.27;0.40;;;14.20;99.90;;;;;;4995259;28;20468;-85
2021/07/15 01:14:46;;;;;;;0.97;0.30;;;14.20;99.90;;;;;;4995207;28;20855;-84
2021/07/15 01:17:19;;;;;;;0.50;0.30;;;14.20;99.90;;;;;;4995127;28;20444;-84
2021/07/15 01:20:07;;;;;;;0.30;0.30;;;14.20;99.90;;;;;;4994962;28;20468;-76
2021/07/15 01:22:37;;;;;;;0.30;0.30;;;14.10;99.90;;;;;;4994905;28;20468;-75
2021/07/15 01:25:29;;;;;;;0.40;0.40;;;14.10;99.90;;;;;;4994951;28;20807;-75
2021/07/15 01:28:09;;;;;;;0.30;0.30;;;14.10;99.90;;;;;;4994513;28;20445;-75
2021/07/15 01:30:43;;;;;;;1.43;0.40;;;14.10;99.90;;;;;;4995104;28;20429;-79
2021/07/15 01:33:16;;;;;;;0.50;0.30;;;14.10;99.90;;;;;;4994817;28;20428;-80
2021/07/15 01:35:49;;;;;;;0.50;0.40;;;14.10;99.90;;;;;;4994453;28;20909;-79
2021/07/15 01:38:18;;;;;;;0.50;0.30;;;14.00;99.90;;;;;;4994656;28;20831;-79
2021/07/15 01:40:50;;;;;;;1.47;0.30;;;14.00;99.90;;;;;;4994643;28;20453;-80
2021/07/15 01:43:26;;;;;;;1.23;0.30;;;14.00;99.90;;;;;;4994557;28;20464;-80
2021/07/15 01:45:55;;;;;;;0.40;0.30;;;14.00;99.90;;;;;;4994363;28;20409;-80
2021/07/15 01:48:22;;;;;;;0.40;0.30;;;13.90;99.90;;;;;;4994043;28;20488;-80
2021/07/15 01:50:50;;;;;;;0.70;0.30;;;13.90;99.90;;;;;;4994461;28;20510;-75
2021/07/15 01:53:17;;;;;;;0.70;0.30;;;13.90;99.90;;;;;;4994065;28;20854;-75
2021/07/15 01:55:44;;;;;;;2.37;0.43;;;13.90;99.90;;;;;;4994080;28;20818;-75
2021/07/15 01:58:11;;;;;;;0.40;0.30;;;13.90;99.90;;;;;;4994266;28;20461;-76
2021/07/15 02:00:39;;;;;;;0.30;0.20;;;13.90;99.90;;;;;;4994322;28;20448;-75
2021/07/15 02:03:08;;;;;;;0.30;0.30;;;13.90;99.90;;;;;;4993191;28;20480;-76
2021/07/15 02:05:35;;;;;;;0.93;0.30;;;13.90;99.90;;;;;;4993979;28;20437;-75
2021/07/15 02:08:03;;;;;;;0.30;0.30;;;13.90;99.90;;;;;;4993839;28;20452;-76
2021/07/15 02:10:33;;;;;;;0.30;0.30;;;13.90;99.90;;;;;;4993956;28;20437;-76
2021/07/15 02:13:00;;;;;;;0.57;0.30;;;13.90;99.90;;;;;;4994161;28;20444;-79
2021/07/15 02:15:28;;;;;;;0.30;0.30;;;13.90;99.90;;;;;;4993806;28;20932;-76
2021/07/15 02:17:57;;;;;;;1.73;0.30;;;13.90;99.90;;;;;;4994085;28;20457;-76
2021/07/15 02:20:26;;;;;;;0.30;0.30;;;13.80;99.90;;;;;;4993765;28;20967;-76
2021/07/15 02:22:55;;;;;;;0.30;0.30;;;13.90;99.90;;;;;;4993752;28;20476;-78
2021/07/15 02:25:23;;;;;;;0.30;0.30;;;13.80;99.90;;;;;;4994077;28;20487;-78
2021/07/15 02:27:52;;;;;;;0.70;0.30;;;13.80;99.90;;;;;;4994008;28;20878;-79
2021/07/15 02:30:20;;;;;;;0.30;0.30;;;13.90;99.90;;;;;;4993920;28;20472;-80
2021/07/15 02:32:51;;;;;;;0.80;0.30;;;13.80;99.90;;;;;;4993651;28;20959;-80
2021/07/15 02:35:19;;;;;;;0.40;0.30;;;13.80;99.90;;;;;;4993690;28;20459;-81
2021/07/15 02:37:49;;;;;;;0.60;0.30;;;13.80;99.90;;;;;;4993915;28;20467;-79
2021/07/15 02:40:18;;;;;;;0.40;0.30;;;13.80;99.90;;;;;;4993489;28;21007;-79
2021/07/15 02:42:45;;;;;;;0.30;0.30;;;13.80;99.90;;;;;;4993712;28;20559;-79
2021/07/15 02:45:14;;;;;;;1.13;0.40;;;13.80;99.90;;;;;;4993819;28;20452;-80
2021/07/15 02:47:42;;;;;;;0.50;0.37;;;13.90;99.90;;;;;;4993551;28;20483;-79
2021/07/15 02:50:11;;;;;;;0.77;0.40;;;13.90;99.90;;;;;;4993377;28;20850;-79
2021/07/15 02:52:38;;;;;;;0.30;0.30;;;13.90;99.90;;;;;;4993551;28;20468;-80
2021/07/15 02:55:08;;;;;;;0.40;0.30;;;13.90;99.90;;;;;;4993788;28;20452;-80
2021/07/15 02:57:44;;;;;;;0.30;0.30;;;13.90;99.90;;;;;;4993799;28;20453;-85
2021/07/15 03:00:14;;;;;;;1.33;0.40;;;13.90;99.90;;;;;;4993490;28;20455;-85
2021/07/15 03:02:48;;;;;;;0.30;0.30;;;14.00;99.90;;;;;;4994039;28;20480;-85
2021/07/15 03:05:19;;;;;;;0.60;0.40;;;14.00;99.90;;;;;;4993800;28;20437;-85
2021/07/15 03:07:48;;;;;;;0.30;0.30;;;14.00;99.90;;;;;;4993806;28;20432;-86
2021/07/15 03:10:18;;;;;;;0.30;0.30;;;14.00;99.90;;;;;;4994396;28;20815;-86
2021/07/15 03:12:45;;;;;;;0.40;0.30;;;14.00;99.90;;;;;;4993813;28;20452;-80
2021/07/15 03:15:13;;;;;;;0.30;0.30;;;14.10;99.90;;;;;;4997371;28;20510;-79
2021/07/15 03:17:45;;;;;;;1.57;0.40;;;14.10;99.90;;;;;;4997311;28;20456;-79
2021/07/15 03:20:15;;;;;;;4.33;0.73;;;14.00;99.90;;;;;;4997192;28;20483;-80
2021/07/15 03:22:45;;;;;;;0.40;0.40;;;14.10;99.90;;;;;;4998168;28;20477;-86
2021/07/15 03:25:15;;;;;;;0.30;0.30;;;14.00;99.90;;;;;;4996968;28;20437;-86
2021/07/15 03:27:46;;;;;;;0.87;0.30;;;14.00;99.90;;;;;;4997263;28;20434;-86
2021/07/15 03:30:15;;;;;;;2.63;0.30;;;14.10;99.90;;;;;;4996868;28;20980;-86
2021/07/15 03:32:43;;;;;;;0.60;0.40;;;14.00;99.90;;;;;;4996735;28;20825;-86
2021/07/15 03:35:11;;;;;;;0.50;0.43;;;14.00;99.90;;;;;;4997040;28;20459;-79
2021/07/15 03:37:39;;;;;;;0.50;0.30;;;14.00;99.90;;;;;;4996931;28;20475;-79
2021/07/15 03:40:07;;;;;;;0.60;0.30;;;14.10;99.90;;;;;;4996630;28;20464;-81
2021/07/15 03:42:35;;;;;;;2.00;0.33;;;14.10;99.90;;;;;;4996767;28;20476;-81
2021/07/15 03:45:05;;;;;;;2.53;0.40;;;14.10;99.90;;;;;;4997205;28;20459;-81
2021/07/15 03:47:33;;;;;;;6.73;0.40;;;14.10;99.90;;;;;;4996476;28;20484;-81
2021/07/15 03:50:00;;;;;;;1.40;0.20;;;14.20;99.90;;;;;;4996650;28;20463;-81
2021/07/15 03:52:27;;;;;;;0.47;0.30;;;14.10;99.90;;;;;;4996374;28;20449;-82
2021/07/15 03:54:56;;;;;;;2.50;0.40;;;14.10;99.90;;;;;;4996605;28;20452;-79
2021/07/15 03:57:26;;;;;;;0.30;0.30;;;14.20;99.90;;;;;;4996295;28;21013;-79
2021/07/15 03:59:54;;;;;;;1.43;0.30;;;14.20;99.90;;;;;;4996176;28;20502;-79
2021/07/15 04:02:25;;;;;;;2.00;0.30;;;14.20;99.90;;;;;;4996399;28;20480;-78
2021/07/15 04:04:54;;;;;;;1.33;0.30;;;14.20;99.90;;;;;;4996646;28;20452;-78
2021/07/15 04:07:24;;;;;;;0.90;0.30;;;14.20;99.90;;;;;;4996139;28;20804;-78
2021/07/15 04:09:51;;;;;;;0.30;0.30;;;14.20;99.90;;;;;;4996328;28;20472;-81
2021/07/15 04:12:20;;;;;;;0.40;0.30;;;14.30;99.90;;;;;;4996283;28;20456;-86
2021/07/15 04:15:12;;;;;;;0.50;0.30;;;14.30;99.90;;;;;;4996359;28;20464;-85
2021/07/15 04:17:47;;;;;;;0.37;0.30;;;14.40;99.90;;;;;;4995970;28;20905;-81
2021/07/15 04:20:15;;;;;;;0.40;0.40;;;14.40;99.90;;;;;;4996204;28;20468;-86
2021/07/15 04:22:48;;;;;;;0.30;0.30;;;14.40;99.90;;;;;;4996272;28;20487;-86
2021/07/15 04:25:17;;;;;;;0.37;0.30;;;14.40;99.90;;;;;;4995874;28;20444;-86
2021/07/15 04:27:47;;;;;;;5.47;0.40;;;14.40;99.90;;;;;;4996096;28;20451;-86
2021/07/15 04:30:16;;;;;;;0.40;0.30;;;14.40;99.90;;;;;;4996097;28;20453;-86
2021/07/15 04:32:47;;;;;;;0.40;0.30;;;14.40;99.90;;;;;;4996009;28;20448;-80
2021/07/15 04:35:16;;;;;;;0.90;0.30;;;14.40;99.90;;;;;;4995779;28;20425;-80
2021/07/15 04:37:44;;;;;;;0.50;0.30;;;14.50;99.90;;;;;;4995839;28;20453;-80
2021/07/15 04:40:14;;;;;;;0.60;0.30;;;14.50;99.90;;;;;;4995495;28;20460;-80
2021/07/15 04:42:42;;;;;;;0.30;0.30;;;14.50;99.90;;;;;;4995748;28;20492;-86
2021/07/15 04:45:11;;;;;;;0.40;0.30;;;14.50;99.90;;;;;;4995529;28;20444;-86
2021/07/15 04:47:40;;;;;;;1.70;0.30;;;14.40;99.90;;;;;;4995565;28;20984;-78
2021/07/15 04:50:13;;;;;;;2.73;0.30;;;14.50;99.90;;;;;;4995245;28;20530;-78
2021/07/15 04:52:40;;;;;;;0.40;0.30;;;14.50;99.90;;;;;;4995322;28;20892;-78
2021/07/15 04:55:09;;;;;;;0.30;0.30;;;14.50;99.90;;;;;;4995540;28;20448;-78
2021/07/15 04:57:36;;;;;;;0.37;0.30;;;14.60;99.90;;;;;;4995521;28;20460;-78
2021/07/15 05:00:06;;;;;;;0.50;0.30;;;14.60;99.90;;;;;;4995359;28;20476;-79
2021/07/15 05:02:32;;;;;;;0.30;0.27;;;14.60;99.90;;;;;;4995089;28;20439;-78
2021/07/15 05:05:01;;;;;;;0.30;0.30;;;14.70;99.90;;;;;;4995088;28;20819;-79
2021/07/15 05:07:29;;;;;;;0.30;0.23;;;14.70;99.90;;;;;;4995012;28;20464;-79
2021/07/15 05:09:56;;;;;;;0.40;0.30;;;14.70;99.90;;;;;;4994936;28;20991;-86
2021/07/15 05:12:23;;;;;;;4.40;0.40;;;14.70;99.90;;;;;;4995283;28;20464;-80
2021/07/15 05:14:49;;;;;;;0.80;0.30;;;14.80;99.90;;;;;;4995134;28;20449;-79
2021/07/15 05:17:16;;;;;;;1.00;0.30;;;14.80;99.90;;;;;;4994854;28;20440;-79
2021/07/15 05:19:43;;;;;;;2.10;0.30;;;14.80;99.90;;;;;;4994682;28;20975;-80
2021/07/15 05:22:10;;;;;;;0.30;0.30;;;14.80;99.90;;;;;;4995018;28;20452;-80
2021/07/15 05:24:38;;;;;;;0.40;0.30;;;14.80;99.90;;;;;;4994895;28;20499;-80
2021/07/15 05:27:05;;;;;;;2.33;0.30;;;14.80;99.90;;;;;;4994929;28;20456;-81
2021/07/15 05:29:32;;;;;;;0.40;0.30;;;14.90;99.90;;;;;;4994792;28;20480;-82
2021/07/15 05:31:59;;;;;;;2.10;0.30;;;14.90;99.90;;;;;;4994817;28;20458;-82
2021/07/15 05:34:25;;;;;;;0.50;0.30;;;14.80;99.90;;;;;;4994897;28;20527;-85
2021/07/15 05:36:52;;;;;;;0.30;0.30;;;14.90;99.90;;;;;;4994393;28;20463;-85
2021/07/15 05:39:19;;;;;;;0.40;0.30;;;14.90;99.90;;;;;;4994631;28;20456;-82
2021/07/15 05:41:47;;;;;;;1.23;0.50;;;14.90;99.90;;;;;;4994723;28;20448;-82
2021/07/15 05:44:14;;;;;;;1.03;0.30;;;15.00;99.90;;;;;;4994331;28;20805;-81
2021/07/15 05:46:40;;;;;;;0.40;0.30;;;15.00;99.90;;;;;;4994368;28;20459;-81
2021/07/15 05:49:07;;;;;;;0.50;0.40;;;15.10;99.90;;;;;;4994427;28;20475;-83
2021/07/15 05:51:34;;;;;;;0.30;0.30;;;15.10;99.90;;;;;;4994516;28;20459;-81
2021/07/15 05:54:00;;;;;;;1.73;0.30;;;15.20;99.90;;;;;;4994430;28;20467;-81
2021/07/15 05:56:27;;;;;;;1.23;0.40;;;15.20;99.90;;;;;;4994354;28;20448;-81
2021/07/15 05:58:56;;;;;;;1.23;0.30;;;15.20;99.90;;;;;;4993959;28;20477;-81
2021/07/15 06:01:23;;;;;;;0.30;0.30;;;15.30;99.90;;;;;;4994310;28;20453;-79
2021/07/15 06:03:49;;;;;;;2.23;1.13;;;15.30;99.90;;;;;;4994170;28;20519;-79
2021/07/15 06:06:17;;;;;;;1.43;0.60;;;15.40;99.90;;;;;;4994281;28;20448;-79
2021/07/15 06:08:44;;;;;;;0.30;0.30;;;15.40;99.90;;;;;;4994195;28;20472;-82
2021/07/15 06:11:11;;;;;;;0.30;0.30;;;15.50;99.90;;;;;;4993950;28;20459;-82
2021/07/15 06:13:37;;;;;;;0.30;0.30;;;15.60;99.90;;;;;;4993995;28;20452;-81
2021/07/15 06:16:06;;;;;;;0.47;0.30;;;15.60;99.90;;;;;;4994150;28;20460;-80
2021/07/15 06:18:32;;;;;;;0.40;0.30;;;15.60;99.90;;;;;;4994052;28;20468;-81
2021/07/15 06:20:59;;;;;;;0.40;0.30;;;15.60;99.90;;;;;;4993730;28;20960;-81
2021/07/15 06:23:26;;;;;;;0.60;0.30;;;15.70;99.90;;;;;;4993949;28;21054;-83
2021/07/15 06:25:53;;;;;;;2.83;0.30;;;15.70;99.90;;;;;;4993760;28;20437;-80
2021/07/15 06:28:19;;;;;;;1.07;0.70;;;15.70;99.90;;;;;;4993877;28;20477;-80
2021/07/15 06:30:46;;;;;;;0.40;0.40;;;15.80;99.90;;;;;;4994506;28;20452;-81
2021/07/15 06:33:14;;;;;;;1.83;0.60;;;15.80;99.90;;;;;;4993959;28;20449;-80
2021/07/15 06:35:41;;;;;;;1.03;0.40;;;15.80;99.90;;;;;;4993884;28;20457;-80
2021/07/15 06:38:09;;;;;;;0.40;0.30;;;15.70;99.90;;;;;;4995350;28;20830;-85
2021/07/15 06:40:36;;;;;;;0.50;0.40;;;15.80;99.90;;;;;;5010129;28;20466;-85
2021/07/15 06:43:03;;;;;;;0.80;0.30;;;15.80;99.90;;;;;;5010921;28;20444;-85
2021/07/15 06:45:30;;;;;;;0.60;0.40;;;16.00;99.90;;;;;;5007100;28;20924;-85
2021/07/15 06:47:56;;;;;;;0.40;0.40;;;16.00;99.90;;;;;;5001222;28;21029;-85
2021/07/15 06:50:24;;;;;;;2.97;0.40;;;16.20;99.90;;;;;;5012166;28;20456;-85
2021/07/15 06:52:51;;;;;;;0.87;0.50;;;16.40;99.90;;;;;;5007804;28;20443;-82
2021/07/15 06:55:18;;;;;;;3.27;0.90;;;16.60;99.90;;;;;;4997721;28;20444;-83
2021/07/15 06:57:47;;;;;;;1.27;0.70;;;16.80;99.90;;;;;;4998198;28;20455;-82
2021/07/15 07:00:16;;;;;;;0.80;0.60;;;17.00;99.90;;;;;;5002671;28;20467;-85
2021/07/15 07:02:44;;;;;;;1.33;0.50;;;17.20;99.90;;;;;;5012330;28;20452;-85
2021/07/15 07:05:11;;;;;;;4.80;0.60;;;17.40;99.90;;;;;;5010687;28;20852;-85
2021/07/15 07:07:40;;;;;;;0.77;0.60;;;17.40;99.90;;;;;;5012671;28;20456;-84
2021/07/15 07:10:09;;;;;;;0.67;0.50;;;17.40;99.90;;;;;;5012082;28;20471;-84
2021/07/15 07:12:36;;;;;;;2.60;0.57;;;17.40;99.90;;;;;;5014473;28;20451;-84
2021/07/15 07:15:03;;;;;;;1.73;0.93;;;17.60;99.90;;;;;;5013995;28;20451;-84
2021/07/15 07:17:30;;;;;;;0.67;0.50;;;17.70;99.90;;;;;;4999240;28;20448;-84
2021/07/15 07:19:57;;;;;;;0.97;0.57;;;17.70;99.90;;;;;;4998846;28;20456;-85
2021/07/15 07:22:24;;;;;;;0.83;0.57;;;17.60;99.90;;;;;;4998592;28;20456;-85
2021/07/15 07:24:52;;;;;;;0.57;0.57;;;17.60;99.90;;;;;;4997947;28;20480;-83
2021/07/15 07:27:18;;;;;;;6.73;0.80;;;17.60;99.90;;;;;;4996839;28;20459;-83
2021/07/15 07:29:45;;;;;;;0.70;0.70;;;17.60;99.90;;;;;;4997033;28;20472;-83
2021/07/15 07:32:12;;;;;;;1.47;1.07;;;17.60;99.90;;;;;;4997110;28;20475;-81
2021/07/15 07:34:39;;;;;;;0.70;0.70;;;17.60;99.90;;;;;;4997028;28;20444;-87
2021/07/15 07:37:05;;;;;;;0.57;0.40;;;17.60;99.90;;;;;;4996858;28;20464;-81
2021/07/15 07:39:32;;;;;;;0.43;0.43;;;17.70;99.90;;;;;;4996857;28;20487;-80
2021/07/15 07:42:00;;;;;;;1.27;0.60;;;17.70;99.90;;;;;;4996888;28;20467;-80
2021/07/15 07:44:27;;;;;;;1.50;0.60;;;17.90;99.90;;;;;;4996758;28;20483;-80
2021/07/15 07:46:54;;;;;;;1.60;0.60;;;18.10;99.90;;;;;;4996387;28;20437;-80
2021/07/15 07:49:21;;;;;;;0.50;0.50;;;18.20;99.90;;;;;;4996691;28;20464;-80
2021/07/15 07:51:48;;;;;;;0.57;0.40;;;18.10;99.90;;;;;;4996748;28;20452;-80
2021/07/15 07:54:14;;;;;;;0.40;0.40;;;18.10;99.90;;;;;;4996624;28;20452;-80
2021/07/15 07:56:42;;;;;;;0.40;0.40;;;18.00;99.90;;;;;;4996350;28;20998;-80
2021/07/15 07:59:10;;;;;;;1.60;0.40;;;17.90;99.90;;;;;;4995809;28;20995;-78
2021/07/15 08:01:39;;;;;;;0.50;0.40;;;17.80;99.90;;;;;;4995767;28;20448;-80
2021/07/15 08:04:06;;;;;;;1.17;0.50;;;17.70;99.90;;;;;;4996413;28;20488;-80
2021/07/15 08:06:34;;;;;;;0.70;0.60;;;17.60;99.90;;;;;;4996467;28;20456;-80
2021/07/15 08:09:03;;;;;;;1.63;0.50;;;17.50;99.90;;;;;;4995988;28;21019;-80
2021/07/15 08:11:31;;;;;;;0.43;0.43;;;17.40;99.90;;;;;;4996342;28;20548;-80
2021/07/15 08:13:58;;;;;;;0.40;0.40;;;17.30;99.90;;;;;;4996313;28;20488;-79
2021/07/15 08:16:26;;;;;;;2.00;1.90;;;17.20;99.90;;;;;;4996238;28;20456;-79
2021/07/15 08:18:53;;;;;;;1.50;0.50;;;17.00;99.90;;;;;;4995778;28;21007;-80
2021/07/15 08:21:20;;;;;;;0.80;0.40;;;17.00;99.90;;;;;;4996155;28;20448;-80
2021/07/15 08:23:47;;;;;;;0.40;0.40;;;16.90;99.90;;;;;;4995770;28;21191;-80
2021/07/15 08:26:14;;;;;;;2.50;0.40;;;16.80;99.90;;;;;;4996097;28;20452;-80
2021/07/15 08:28:41;;;;;;;2.97;0.50;;;16.90;99.90;;;;;;4995597;28;20983;-79
2021/07/15 08:31:07;;;;;;;3.73;0.60;;;16.90;99.90;;;;;;4995938;28;20453;-79
2021/07/15 08:33:36;;;;;;;3.57;0.50;;;16.90;99.90;;;;;;4995590;28;20941;-79
2021/07/15 08:36:03;;;;;;;0.60;0.30;;;16.90;99.90;;;;;;4995897;28;20456;-79
2021/07/15 08:38:29;;;;;;;2.80;0.40;;;16.90;99.90;;;;;;4996310;28;20471;-79
2021/07/15 08:40:56;;;;;;;4.37;0.40;;;17.00;99.90;;;;;;4995821;28;20456;-78
2021/07/15 08:43:24;;;;;;;3.73;1.00;;;17.00;99.90;;;;;;4995756;28;20448;-77
2021/07/15 08:45:52;;;;;;;0.80;0.40;;;17.00;99.90;;;;;;4995290;28;20840;-78
2021/07/15 08:48:20;;;;;;;0.50;0.37;;;17.10;99.90;;;;;;4995145;28;20487;-79
2021/07/15 08:50:51;;;;;;;2.03;0.60;;;17.10;99.90;;;;;;4995558;28;20459;-80
2021/07/15 08:53:20;;;;;;;0.50;0.50;;;17.10;99.90;;;;;;4995598;28;20441;-79
2021/07/15 08:58:31;;;;;;;2.00;0.40;;;17.20;99.90;;;;;;4995212;28;20516;-80
2021/07/15 09:00:58;;;;;;;0.60;0.40;;;17.30;99.90;;;;;;4995400;28;20460;-80
2021/07/15 09:03:25;;;;;;;1.00;0.40;;;17.30;99.90;;;;;;4995368;28;20456;-81
2021/07/15 09:05:53;;;;;;;0.40;0.40;;;17.40;99.90;;;;;;4995224;28;20480;-81
2021/07/15 09:08:20;;;;;;;0.80;0.40;;;17.60;99.90;;;;;;4995107;28;20861;-81
2021/07/15 09:10:47;;;;;;;0.90;0.50;;;17.70;99.90;;;;;;4994946;28;20456;-81
2021/07/15 09:13:14;;;;;;;1.10;0.40;;;17.80;99.90;;;;;;4995115;28;20457;-80
2021/07/15 09:15:48;;;;;;;0.40;0.40;;;18.00;99.90;;;;;;4995131;28;20448;-80
2021/07/15 09:18:16;;;;;;;0.50;0.50;;;18.10;99.90;;;;;;4995036;28;20433;-80
2021/07/15 09:20:43;;;;;;;0.40;0.40;;;18.20;99.90;;;;;;4994704;28;20507;-79
2021/07/15 09:23:12;;;;;;;0.50;0.40;;;18.10;99.90;;;;;;4994679;28;20639;-79
2021/07/15 09:25:57;;;;;;;0.70;0.50;;;18.10;99.90;;;;;;4994872;28;20476;-79
2021/07/15 09:28:30;;;;;;;0.40;0.30;;;18.10;99.90;;;;;;4994684;28;20445;-79
2021/07/15 09:30:57;;;;;;;0.60;0.40;;;18.20;99.90;;;;;;4994734;28;20459;-79
2021/07/15 09:33:28;;;;;;;0.57;0.40;;;18.30;99.90;;;;;;4995456;28;20460;-80
2021/07/15 09:35:55;;;;;;;0.40;0.40;;;18.30;99.90;;;;;;4994798;28;20527;-80
2021/07/15 09:38:25;;;;;;;0.47;0.47;;;18.30;99.90;;;;;;4994652;28;20471;-80
2021/07/15 09:40:55;;;;;;;0.40;0.40;;;18.20;99.90;;;;;;4994759;28;20531;-81
2021/07/15 09:43:25;;;;;;;0.40;0.30;;;18.00;99.90;;;;;;4995247;28;20781;-81
2021/07/15 09:46:02;;;;;;;0.87;0.43;;;17.90;99.90;;;;;;4994536;28;20483;-81
2021/07/15 09:48:35;;;;;;;1.17;0.50;;;17.90;99.90;;;;;;4994118;28;20539;-81
2021/07/15 09:51:02;;;;;;;1.17;0.40;;;17.90;99.90;;;;;;4994273;28;20508;-83
2021/07/15 09:53:33;;;;;;;2.43;0.40;;;17.90;99.90;;;;;;4994481;28;20456;-82
2021/07/15 09:56:02;;;;;;;0.40;0.30;;;17.80;99.90;;;;;;4994480;28;20858;-82
2021/07/15 09:58:33;;;;;;;0.50;0.50;;;17.60;99.90;;;;;;4995035;28;20976;-82
2021/07/15 10:01:05;;;;;;;0.63;0.40;;;17.40;99.90;;;;;;4994109;28;20855;-82
2021/07/15 10:03:37;;;;;;;0.40;0.40;;;17.30;99.90;;;;;;4994329;28;20442;-83
2021/07/15 10:06:04;;;;;;;1.33;0.50;;;17.10;99.90;;;;;;4994184;28;20491;-82
2021/07/15 10:08:34;;;;;;;0.50;0.40;;;17.00;99.90;;;;;;4993861;28;21030;-82
2021/07/15 10:11:19;;;;;;;0.57;0.57;;;17.00;99.90;;;;;;4993938;28;20524;-81
2021/07/15 10:13:47;;;;;;;0.50;0.50;;;17.10;99.90;;;;;;4993938;28;20913;-81
2021/07/15 10:16:14;;;;;;;0.40;0.40;;;17.10;99.90;;;;;;4993840;28;20940;-82
2021/07/15 10:18:43;;;;;;;0.40;0.40;;;17.10;99.90;;;;;;4993791;28;20464;-82
2021/07/15 10:21:13;;;;;;;0.50;0.40;;;17.10;99.90;;;;;;4994285;28;20500;-80
2021/07/15 10:23:42;;;;;;;0.43;0.43;;;17.10;99.90;;;;;;4994752;28;20539;-80
2021/07/15 10:26:13;;;;;;;0.50;0.47;;;17.10;99.90;;;;;;4993685;28;20484;-81
2021/07/15 10:28:43;;;;;;;0.50;0.50;;;17.20;99.90;;;;;;4994342;28;20472;-80
2021/07/15 10:31:11;;;;;;;0.30;0.30;;;17.50;99.90;;;;;;4993834;28;20437;-81
2021/07/15 10:33:38;;;;;;;0.40;0.40;;;17.70;99.90;;;;;;4993706;28;20444;-81
2021/07/15 10:36:06;;;;;;;0.40;0.40;;;18.00;99.90;;;;;;4993799;28;20975;-81
2021/07/15 10:38:37;;;;;;;0.40;0.40;;;18.50;99.90;;;;;;4993703;28;20472;-80
2021/07/15 10:41:07;;;;;;;0.47;0.47;;;18.70;99.90;;;;;;4994196;28;20436;-81
2021/07/15 10:43:35;;;;;;;0.47;0.40;;;18.60;99.90;;;;;;4993941;28;20810;-81
2021/07/15 10:46:03;;;;;;;0.40;0.40;;;18.60;99.90;;;;;;4993783;28;20484;-83
2021/07/15 10:48:32;;;;;;;0.40;0.40;;;18.50;99.90;;;;;;4993440;28;20535;-82
2021/07/15 10:51:00;;;;;;;0.73;0.40;;;18.70;99.90;;;;;;4993795;28;20459;-82
2021/07/15 10:53:28;;;;;;;2.47;0.40;;;18.80;99.90;;;;;;4993655;28;20452;-82
2021/07/15 10:55:56;;;;;;;0.50;0.50;;;18.90;99.90;;;;;;4993727;28;20451;-82
2021/07/15 10:58:47;;;;;;;0.40;0.40;;;19.00;99.90;;;;;;4993320;28;21002;-82
2021/07/15 11:01:40;;;;;;;0.40;0.30;;;19.10;99.90;;;;;;4993793;28;20416;-82
2021/07/15 11:04:08;;;;;;;0.50;0.40;;;19.20;99.90;;;;;;4994138;28;20447;-82
2021/07/15 11:06:37;;;;;;;0.40;0.40;;;19.30;99.90;;;;;;4993567;28;20480;-81
2021/07/15 11:09:05;;;;;;;0.40;0.40;;;19.50;99.90;;;;;;4993018;28;20864;-82
2021/07/15 11:11:40;;;;;;;0.77;0.50;;;19.60;99.90;;;;;;4993343;28;20455;-82
2021/07/15 11:14:43;;;;;;;0.60;0.57;;;19.60;99.90;;;;;;4993606;28;20444;-82
2021/07/15 11:17:30;;;;;;;0.80;0.50;;;19.40;99.90;;;;;;4988901;28;20467;-82
2021/07/15 11:20:07;;;;;;;0.50;0.50;;;19.30;99.90;;;;;;4993136;28;20968;-82
2021/07/15 11:22:44;;;;;;;1.13;0.50;;;19.30;99.90;;;;;;4993809;28;20436;-81
2021/07/15 11:25:13;;;;;;;0.40;0.40;;;19.30;99.90;;;;;;4993931;28;20476;-81
2021/07/15 11:27:43;;;;;;;0.50;0.50;;;19.40;99.90;;;;;;4993446;28;20821;-81
2021/07/15 11:30:14;;;;;;;0.43;0.43;;;19.40;99.90;;;;;;4993427;28;20471;-81
2021/07/15 11:32:41;;;;;;;0.50;0.50;;;19.40;99.90;;;;;;4993508;28;20433;-81
2021/07/15 11:35:27;;;;;;;0.60;0.60;;;19.30;99.90;;;;;;4995338;28;20551;-81
2021/07/15 11:38:09;;;;;;;0.40;0.40;;;19.40;99.90;;;;;;4996676;28;20958;-82
2021/07/15 11:40:44;;;;;;;0.70;0.50;;;19.30;99.90;;;;;;4997340;28;20456;-82
2021/07/15 11:43:29;;;;;;;0.60;0.60;;;19.40;99.90;;;;;;4996599;28;20448;-82
2021/07/15 11:46:12;;;;;;;0.50;0.50;;;19.60;99.90;;;;;;4996827;28;20562;-82
2021/07/15 11:49:08;;;;;;;0.47;0.47;;;19.80;99.90;;;;;;4996379;28;20495;-82
2021/07/15 11:51:38;;;;;;;0.50;0.50;;;19.80;99.90;;;;;;4996993;28;20476;-81
2021/07/15 11:54:35;;;;;;;0.50;0.50;;;19.90;99.90;;;;;;4996720;28;20468;-82
2021/07/15 11:57:23;;;;;;;0.60;0.60;;;19.90;99.90;;;;;;4995093;28;20523;-82
2021/07/15 11:59:51;;;;;;;0.60;0.50;;;19.70;99.90;;;;;;4996287;28;20468;-81
2021/07/15 12:02:24;;;;;;;0.60;0.60;;;19.60;99.90;;;;;;4996251;28;20936;-82
2021/07/15 12:05:27;;;;;;;0.63;0.50;;;19.40;99.90;;;;;;4996808;28;20472;-80
2021/07/15 12:08:06;;;;;;;0.77;0.50;;;19.20;99.90;;;;;;4996217;28;20432;-80
2021/07/15 12:10:36;;;;;;;0.70;0.70;;;19.00;99.90;;;;;;4996450;28;20413;-80
2021/07/15 12:13:04;;;;;;;0.60;0.60;;;18.80;99.90;;;;;;4996366;28;20440;-80
2021/07/15 12:15:31;;;;;;;0.80;0.70;;;18.70;99.90;;;;;;4996320;28;20456;-82
2021/07/15 12:18:01;;;;;;;0.70;0.70;;;18.50;99.90;;;;;;4995954;28;20816;-82
2021/07/15 12:20:38;;;;;;;0.53;0.53;;;18.40;99.90;;;;;;4995915;28;20441;-82
2021/07/15 12:23:06;;;;;;;0.60;0.60;;;18.40;99.90;;;;;;4996234;28;20436;-82
2021/07/15 12:25:35;;;;;;;1.00;0.67;;;18.40;99.90;;;;;;4995725;28;21011;-79
2021/07/15 12:28:05;;;;;;;0.80;0.80;;;18.50;99.90;;;;;;4996020;28;20448;-82
2021/07/15 12:30:45;;;;;;;0.70;0.70;;;18.40;99.90;;;;;;4996316;28;20503;-82
2021/07/15 12:33:15;;;;;;;0.60;0.60;;;18.30;99.90;;;;;;4996757;28;20479;-79
2021/07/15 12:35:44;;;;;;;0.70;0.70;;;18.30;99.90;;;;;;4995991;28;20437;-79
2021/07/15 12:38:32;;;;;;;0.90;0.90;;;18.20;99.90;;;;;;4987865;28;20865;-80
2021/07/15 12:41:18;;;;;;;0.60;0.60;;;18.10;99.90;;;;;;4990265;28;20449;-80
2021/07/15 12:43:51;;;;;;;1.43;0.90;;;18.00;99.90;;;;;;4995820;28;20440;-81
2021/07/15 12:46:19;;;;;;;0.93;0.93;;;18.00;99.90;;;;;;4995141;28;20536;-80
2021/07/15 12:48:50;;;;;;;2.30;1.77;;;18.10;99.90;;;;;;4995262;28;20488;-80
2021/07/15 12:51:19;;;;;;;1.10;1.10;;;18.20;99.90;;;;;;4995353;28;20429;-80
2021/07/15 12:53:48;;;;;;;0.87;0.87;;;18.30;99.90;;;;;;4995571;28;20457;-80
2021/07/15 12:56:19;;;;;;;0.80;0.80;;;18.50;99.90;;;;;;4995510;28;20795;-79
2021/07/15 12:59:00;;;;;;;0.80;0.80;;;18.80;99.90;;;;;;4995320;28;20825;-78
2021/07/15 13:01:27;;;;;;;0.80;0.80;;;19.00;99.90;;;;;;4995511;28;20436;-79
2021/07/15 13:04:09;;;;;;;0.80;0.80;;;19.20;99.90;;;;;;4995382;28;20460;-79